Nyk Orpheus — 7JDN — position and weather

sailwx.info

Track history (hours):
 
Tides and Currents Weather Stations Pressure Air Temp Water Temp Dewpoint Dewpoint Depression Visibility Wind Speed Wind Dir Waves Ship Positions

Nyk Orpheus

Last reported at 2014-Jul-22 12:31 UTC. Time now 2014-Jul-22 13:30 UTC.
Position N 52°11' E 003°38'.

Length 336 m; draft 12 m.

Type: Other ship. MMSI: 432657000.

Date/timePositionNaut miles runAvg speedWind from/ knotsBaromVisibWave heightAir tempDewpointWater temp
2014-Jul-22 12:31N 52°11' E 003°38'0 0.0
2014-Jul-22 11:28N 52°11' E 003°38'0 0.0
2014-Jul-22 10:31N 52°11' E 003°39'0 0.2
2014-Jul-22 09:31N 52°11' E 003°38'0 0.1
2014-Jul-22 08:31N 52°11' E 003°38'0 0.0
2014-Jul-22 07:31N 52°11' E 003°38'0 0.0
2014-Jul-22 06:31N 52°11' E 003°38'0 0.0
2014-Jul-22 05:31N 52°11' E 003°38'0 0.0
2014-Jul-22 04:31N 52°11' E 003°38'0 0.0
2014-Jul-22 03:25N 52°11' E 003°38'0 0.0
2014-Jul-22 02:31N 52°11' E 003°38'0 0.0
2014-Jul-22 01:28N 52°11' E 003°38'0 0.0
2014-Jul-22 00:16N 52°11' E 003°38'0 0.1
2014-Jul-21 23:31N 52°11' E 003°38'0 0.1
2014-Jul-21 21:33N 52°11' E 003°38'4 3.6
2014-Jul-21 20:30N 52°14' E 003°42'2 8.4
2014-Jul-21 20:16N 52°16' E 003°44'912.4
2014-Jul-21 19:33N 52°24' E 003°49'1313.5
2014-Jul-21 18:33N 52°37' E 003°53'1413.8
2014-Jul-21 17:33N 52°51' E 003°58'2713.1
2014-Jul-21 15:29N 53°12' E 004°25'2311.7
2014-Jul-21 13:32N 53°31' E 004°48'1211.8
2014-Jul-21 12:33N 53°36' E 005°06'1212.0
2014-Jul-21 11:33N 53°39' E 005°25'1312.9
2014-Jul-21 10:34N 53°44' E 005°45'1413.7
2014-Jul-21 09:34N 53°48' E 006°07'1313.5
2014-Jul-21 08:34N 53°51' E 006°29'3913.1
2014-Jul-21 05:33N 54°01' E 007°35'1211.8
2014-Jul-21 04:33N 54°01' E 007°55'1211.7
2014-Jul-21 03:33N 54°00' E 008°15'1211.7
2014-Jul-21 02:33N 53°58' E 008°34'1313.0
2014-Jul-21 01:33N 53°50' E 008°52'1413.7
2014-Jul-21 00:33N 53°53' E 009°15'1514.7
2014-Jul-20 23:33N 53°41' E 009°30'1111.3
2014-Jul-20 22:34N 53°34' E 009°45'7 7.3
2014-Jul-20 21:34N 53°32' E 009°56'2 1.7
2014-Jul-20 20:33N 53°30' E 009°56'0 0.0
2014-Jul-20 19:33N 53°30' E 009°56'0 0.0
2014-Jul-20 18:33N 53°30' E 009°56'0 0.0
2014-Jul-20 17:33N 53°30' E 009°56'0 0.0
2014-Jul-20 16:30N 53°30' E 009°56'0 0.0
2014-Jul-20 15:30N 53°30' E 009°56'0 0.0
2014-Jul-20 14:33N 53°30' E 009°56'0 0.0
2014-Jul-20 13:33N 53°30' E 009°56'0 0.0
2014-Jul-20 12:30N 53°30' E 009°56'0 0.0
2014-Jul-20 11:33N 53°30' E 009°56'0 0.0
2014-Jul-20 10:33N 53°30' E 009°56'0 0.0
2014-Jul-20 09:30N 53°30' E 009°56'0 0.0
2014-Jul-20 08:30N 53°30' E 009°56'0 0.0
2014-Jul-20 07:33N 53°30' E 009°56'0 0.0
2014-Jul-20 06:33N 53°30' E 009°56'0 0.0
2014-Jul-20 05:33N 53°30' E 009°56'0 0.0
2014-Jul-20 04:33N 53°30' E 009°56'0 0.0
2014-Jul-20 03:33N 53°30' E 009°56'0 0.0
2014-Jul-20 02:33N 53°30' E 009°56'0 0.0
2014-Jul-20 01:33N 53°30' E 009°56'0 0.0
2014-Jul-20 00:33N 53°30' E 009°56'0 0.0
2014-Jul-19 23:33N 53°30' E 009°56'0 0.0
2014-Jul-19 22:33N 53°30' E 009°56'0 0.0
2014-Jul-19 21:33N 53°30' E 009°56'0 0.0
2014-Jul-19 20:33N 53°30' E 009°56'0 0.0
2014-Jul-19 19:31N 53°30' E 009°56'1 0.9
2014-Jul-19 18:33N 53°31' E 009°56'6 6.3
2014-Jul-19 17:33N 53°33' E 009°47'1111.2
2014-Jul-19 16:33N 53°39' E 009°31'1414.1
2014-Jul-19 15:34N 53°51' E 009°18'1111.4
2014-Jul-19 14:33N 53°51' E 008°59'10 9.7
2014-Jul-19 13:34N 53°53' E 008°43'1110.8
2014-Jul-19 12:34N 53°59' E 008°28'1111.4
2014-Jul-19 11:33N 53°59' E 008°08'4 4.1
2014-Jul-19 10:33N 54°03' E 008°05'1 1.2
2014-Jul-19 09:32N 54°04' E 008°05'0 0.0
2014-Jul-19 08:32N 54°04' E 008°05'0 0.0
2014-Jul-19 07:32N 54°04' E 008°05'0 0.0
2014-Jul-19 06:32N 54°04' E 008°05'0 0.0
2014-Jul-19 05:32N 54°04' E 008°05'0 0.1
2014-Jul-19 04:29N 54°04' E 008°06'0 0.1
2014-Jul-19 03:32N 54°04' E 008°06'0 0.1
2014-Jul-19 02:32N 54°04' E 008°06'0 0.0
2014-Jul-19 01:32N 54°04' E 008°06'0 0.1
2014-Jul-19 00:32N 54°04' E 008°06'0 0.1
2014-Jul-18 23:32N 54°04' E 008°06'0 0.1
2014-Jul-18 22:32N 54°04' E 008°05'0 0.0
2014-Jul-18 21:32N 54°04' E 008°05'0 0.0
2014-Jul-18 20:32N 54°04' E 008°05'0 0.0
2014-Jul-18 19:32N 54°04' E 008°05'0 0.0
2014-Jul-18 18:32N 54°04' E 008°05'0 0.1
2014-Jul-18 17:32N 54°04' E 008°05'0 0.2
2014-Jul-18 16:29N 54°04' E 008°06'1 1.6
2014-Jul-18 15:33N 54°03' E 008°05'7 7.0
2014-Jul-18 14:33N 53°59' E 007°54'7 6.5
2014-Jul-18 13:33N 53°58' E 007°43'1413.8
2014-Jul-18 12:33N 53°55' E 007°21'1716.8
2014-Jul-18 11:33N 53°50' E 006°53'1413.6
2014-Jul-18 10:34N 53°46' E 006°31'1312.9
2014-Jul-18 09:33N 53°43' E 006°10'1212.4
2014-Jul-18 08:33N 53°39' E 005°50'1211.9
2014-Jul-18 07:33N 53°36' E 005°31'1211.6
2014-Jul-18 06:33N 53°32' E 005°12'1111.1
2014-Jul-18 05:33N 53°28' E 004°55'1010.2
2014-Jul-18 04:33N 53°22' E 004°41'1110.8
2014-Jul-18 03:33N 53°12' E 004°33'1110.9
2014-Jul-18 02:34N 53°03' E 004°24'1111.0
2014-Jul-18 01:33N 52°53' E 004°15'1110.9
2014-Jul-18 00:33N 52°44' E 004°05'1110.7
2014-Jul-17 23:33N 52°36' E 003°52'1111.3
2014-Jul-17 22:33N 52°28' E 003°40'1212.1
2014-Jul-17 21:33N 52°17' E 003°32'1312.7
2014-Jul-17 20:33N 52°05' E 003°24'1313.3
2014-Jul-17 19:33N 51°52' E 003°20'1313.0
2014-Jul-17 18:33N 51°40' E 003°12'1515.2
2014-Jul-17 17:34N 51°27' E 002°60'1111.1
2014-Jul-17 16:33N 51°25' E 003°17'1212.0
2014-Jul-17 15:34N 51°26' E 003°36'9 8.6
2014-Jul-17 14:34N 51°21' E 003°48'10 9.6
2014-Jul-17 13:33N 51°26' E 004°01'8 8.3
2014-Jul-17 12:34N 51°23' E 004°13'2 2.2
2014-Jul-17 11:33N 51°21' E 004°16'0 0.0
2014-Jul-17 10:33N 51°21' E 004°16'0 0.0
2014-Jul-17 09:33N 51°21' E 004°16'0 0.0
2014-Jul-17 08:33N 51°21' E 004°16'0 0.0
2014-Jul-17 07:33N 51°21' E 004°16'0 0.0
2014-Jul-17 06:33N 51°21' E 004°16'0 0.0
2014-Jul-17 05:33N 51°21' E 004°16'0 0.0
2014-Jul-17 04:34N 51°21' E 004°16'0 0.0
2014-Jul-17 03:33N 51°21' E 004°16'0 0.0
2014-Jul-17 02:34N 51°21' E 004°16'0 0.0
2014-Jul-17 01:34N 51°21' E 004°16'0 0.0
2014-Jul-17 00:33N 51°21' E 004°16'0 0.0
2014-Jul-16 23:34N 51°21' E 004°16'0 0.0
2014-Jul-16 22:33N 51°21' E 004°16'0 0.0
2014-Jul-16 21:33N 51°21' E 004°16'0 0.0
2014-Jul-16 20:33N 51°21' E 004°16'0 0.0
2014-Jul-16 19:33N 51°21' E 004°16'0 0.0
2014-Jul-16 18:34N 51°21' E 004°16'0 0.0
2014-Jul-16 17:33N 51°21' E 004°16'0 0.0
2014-Jul-16 16:33N 51°21' E 004°16'0 0.0
2014-Jul-16 15:33N 51°21' E 004°16'0 0.0
2014-Jul-16 14:33N 51°21' E 004°16'0 0.0
2014-Jul-16 13:33N 51°21' E 004°16'0 0.0
2014-Jul-16 12:33N 51°21' E 004°16'0 0.0
2014-Jul-16 11:34N 51°21' E 004°16'0 0.0
2014-Jul-16 10:33N 51°21' E 004°16'0 0.0
2014-Jul-16 09:33N 51°21' E 004°16'0 0.0
2014-Jul-16 08:34N 51°21' E 004°16'0 0.0
2014-Jul-16 07:33N 51°21' E 004°16'0 0.0
2014-Jul-16 06:33N 51°21' E 004°16'0 0.0
2014-Jul-16 05:33N 51°21' E 004°16'0 0.0
2014-Jul-16 04:33N 51°21' E 004°16'0 0.0
2014-Jul-16 03:33N 51°21' E 004°16'0 0.0
2014-Jul-16 02:33N 51°21' E 004°16'0 0.0
2014-Jul-16 01:34N 51°21' E 004°16'0 0.0
2014-Jul-16 00:33N 51°21' E 004°16'0 0.0
2014-Jul-15 23:33N 51°21' E 004°16'0 0.0
2014-Jul-15 22:33N 51°21' E 004°16'0 0.0
2014-Jul-15 21:33N 51°21' E 004°16'3 3.1
2014-Jul-15 20:33N 51°24' E 004°13'8 7.5
2014-Jul-15 19:33N 51°26' E 004°01'9 9.0
2014-Jul-15 18:34N 51°21' E 003°49'1010.1
2014-Jul-15 17:33N 51°26' E 003°35'1414.1
2014-Jul-15 16:33N 51°24' E 003°12'1515.0
2014-Jul-15 15:33N 51°25' E 002°48'1717.0
2014-Jul-15 14:33N 51°20' E 002°22'2120.8
2014-Jul-15 13:34N 51°09' E 001°54'2020.3
2014-Jul-15 12:33N 50°55' E 001°31'1918.9
2014-Jul-15 11:33N 50°38' E 001°17'2218.7
2014-Jul-15 10:22N 50°27' E 000°47'1619.9
2014-Jul-15 09:33N 50°23' E 000°22'1919.3
2014-Jul-15 08:33N 50°21' W 000°08'2517.8
2014-Jul-15 07:10N 50°29' W 000°44'915.2
2014-Jul-15 06:33N 50°34' W 000°57'1110.5
2014-Jul-15 05:34N 50°44' W 001°04'1111.0
2014-Jul-15 04:33N 50°50' W 001°19'7 7.1
2014-Jul-15 03:33N 50°54' W 001°27'0 0.2
2014-Jul-15 02:33N 50°54' W 001°27'0 0.0
2014-Jul-15 01:33N 50°54' W 001°27'0 0.0
2014-Jul-15 00:33N 50°54' W 001°27'0 0.0
2014-Jul-14 23:33N 50°54' W 001°27'0 0.0
2014-Jul-14 22:33N 50°54' W 001°27'0 0.0
2014-Jul-14 21:33N 50°54' W 001°27'0 0.0
2014-Jul-14 20:33N 50°54' W 001°27'0 0.0
2014-Jul-14 19:33N 50°54' W 001°27'0 0.0
2014-Jul-14 18:33N 50°54' W 001°27'0 0.0
2014-Jul-14 17:33N 50°54' W 001°27'0 0.0
2014-Jul-14 16:33N 50°54' W 001°27'0 0.0
2014-Jul-14 15:33N 50°54' W 001°27'0 0.0
2014-Jul-14 14:34N 50°54' W 001°27'0 0.0
2014-Jul-14 13:33N 50°54' W 001°27'0 0.0
2014-Jul-14 12:33N 50°54' W 001°27'0 0.0
2014-Jul-14 11:33N 50°54' W 001°27'0 0.0
2014-Jul-14 10:33N 50°54' W 001°27'0 0.0
2014-Jul-14 09:33N 50°54' W 001°27'0 0.0
2014-Jul-14 08:33N 50°54' W 001°27'0 0.0
2014-Jul-14 07:33N 50°54' W 001°27'0 0.0
2014-Jul-14 06:33N 50°54' W 001°27'0 0.0
2014-Jul-14 05:33N 50°54' W 001°27'0 0.0
2014-Jul-14 04:33N 50°54' W 001°27'0 0.0
2014-Jul-14 03:33N 50°54' W 001°27'0 0.0
2014-Jul-14 02:33N 50°54' W 001°27'0 0.0
2014-Jul-14 01:33N 50°54' W 001°27'0 0.0
2014-Jul-14 00:33N 50°54' W 001°27'0 0.0
2014-Jul-13 23:33N 50°54' W 001°27'0 0.0
2014-Jul-13 22:33N 50°54' W 001°27'0 0.0
2014-Jul-13 21:33N 50°54' W 001°27'0 0.0
2014-Jul-13 20:33N 50°54' W 001°27'0 0.0
2014-Jul-13 19:34N 50°54' W 001°27'0 0.0
2014-Jul-13 18:33N 50°54' W 001°27'0 0.0
2014-Jul-13 17:33N 50°54' W 001°27'0 0.0
2014-Jul-13 16:33N 50°54' W 001°27'0 0.0
2014-Jul-13 15:33N 50°54' W 001°27'0 0.0
2014-Jul-13 14:33N 50°54' W 001°27'0 0.0
2014-Jul-13 13:33N 50°54' W 001°27'0 0.0
2014-Jul-13 12:33N 50°54' W 001°27'0 0.0
2014-Jul-13 11:33N 50°54' W 001°27'0 0.0
2014-Jul-13 10:33N 50°54' W 001°27'0 0.0
2014-Jul-13 09:33N 50°54' W 001°27'0 0.0
2014-Jul-13 08:33N 50°54' W 001°27'0 0.0
2014-Jul-13 07:33N 50°54' W 001°27'0 0.0
2014-Jul-13 06:33N 50°54' W 001°27'0 0.0
2014-Jul-13 05:33N 50°54' W 001°27'0 0.0
2014-Jul-13 04:33N 50°54' W 001°27'0 0.0
2014-Jul-13 03:33N 50°54' W 001°27'0 0.0
2014-Jul-13 02:33N 50°54' W 001°27'0 0.0
2014-Jul-13 01:33N 50°54' W 001°27'0 0.0
2014-Jul-13 00:33N 50°54' W 001°27'0 0.0
2014-Jul-12 23:33N 50°54' W 001°27'0 0.0
2014-Jul-12 22:33N 50°54' W 001°27'0 0.0
2014-Jul-12 21:33N 50°54' W 001°27'0 0.0
2014-Jul-12 20:33N 50°54' W 001°27'0 0.0
2014-Jul-12 19:33N 50°54' W 001°27'0 0.0
2014-Jul-12 18:34N 50°54' W 001°27'0 0.0
2014-Jul-12 17:33N 50°54' W 001°27'0 0.0
2014-Jul-12 16:33N 50°54' W 001°27'0 0.0
2014-Jul-12 15:33N 50°54' W 001°27'0 0.0
2014-Jul-12 14:33N 50°54' W 001°27'0 0.0
2014-Jul-12 13:33N 50°54' W 001°27'  
Track history (hours):
 
Tides and Currents Weather Stations Pressure Air Temp Water Temp Dewpoint Dewpoint Depression Visibility Wind Speed Wind Dir Waves Ship Positions

Nyk Orpheus

Last reported at 2014-Jul-22 12:31 UTC. Time now 2014-Jul-22 13:30 UTC.
Position N 52°11' E 003°38'.

Length 336 m; draft 12 m.

Type: Other ship. MMSI: 432657000.

Date/timePositionNaut miles runAvg speedWind from/ knotsBaromVisibWave heightAir tempDewpointWater temp
2014-Jul-22 12:31N 52°11' E 003°38'0 0.0
2014-Jul-22 11:28N 52°11' E 003°38'0 0.0
2014-Jul-22 10:31N 52°11' E 003°39'0 0.2
2014-Jul-22 09:31N 52°11' E 003°38'0 0.1
2014-Jul-22 08:31N 52°11' E 003°38'0 0.0
2014-Jul-22 07:31N 52°11' E 003°38'0 0.0
2014-Jul-22 06:31N 52°11' E 003°38'0 0.0
2014-Jul-22 05:31N 52°11' E 003°38'0 0.0
2014-Jul-22 04:31N 52°11' E 003°38'0 0.0
2014-Jul-22 03:25N 52°11' E 003°38'0 0.0
2014-Jul-22 02:31N 52°11' E 003°38'0 0.0
2014-Jul-22 01:28N 52°11' E 003°38'0 0.0
2014-Jul-22 00:16N 52°11' E 003°38'0 0.1
2014-Jul-21 23:31N 52°11' E 003°38'0 0.1
2014-Jul-21 21:33N 52°11' E 003°38'4 3.6
2014-Jul-21 20:30N 52°14' E 003°42'2 8.4
2014-Jul-21 20:16N 52°16' E 003°44'912.4
2014-Jul-21 19:33N 52°24' E 003°49'1313.5
2014-Jul-21 18:33N 52°37' E 003°53'1413.8
2014-Jul-21 17:33N 52°51' E 003°58'2713.1
2014-Jul-21 15:29N 53°12' E 004°25'2311.7
2014-Jul-21 13:32N 53°31' E 004°48'1211.8
2014-Jul-21 12:33N 53°36' E 005°06'1212.0
2014-Jul-21 11:33N 53°39' E 005°25'1312.9
2014-Jul-21 10:34N 53°44' E 005°45'1413.7
2014-Jul-21 09:34N 53°48' E 006°07'1313.5
2014-Jul-21 08:34N 53°51' E 006°29'3913.1
2014-Jul-21 05:33N 54°01' E 007°35'1211.8
2014-Jul-21 04:33N 54°01' E 007°55'1211.7
2014-Jul-21 03:33N 54°00' E 008°15'1211.7
2014-Jul-21 02:33N 53°58' E 008°34'1313.0
2014-Jul-21 01:33N 53°50' E 008°52'1413.7
2014-Jul-21 00:33N 53°53' E 009°15'1514.7
2014-Jul-20 23:33N 53°41' E 009°30'1111.3
2014-Jul-20 22:34N 53°34' E 009°45'7 7.3
2014-Jul-20 21:34N 53°32' E 009°56'2 1.7
2014-Jul-20 20:33N 53°30' E 009°56'0 0.0
2014-Jul-20 19:33N 53°30' E 009°56'0 0.0
2014-Jul-20 18:33N 53°30' E 009°56'0 0.0
2014-Jul-20 17:33N 53°30' E 009°56'0 0.0
2014-Jul-20 16:30N 53°30' E 009°56'0 0.0
2014-Jul-20 15:30N 53°30' E 009°56'0 0.0
2014-Jul-20 14:33N 53°30' E 009°56'0 0.0
2014-Jul-20 13:33N 53°30' E 009°56'0 0.0
2014-Jul-20 12:30N 53°30' E 009°56'0 0.0
2014-Jul-20 11:33N 53°30' E 009°56'0 0.0
2014-Jul-20 10:33N 53°30' E 009°56'0 0.0
2014-Jul-20 09:30N 53°30' E 009°56'0 0.0
2014-Jul-20 08:30N 53°30' E 009°56'0 0.0
2014-Jul-20 07:33N 53°30' E 009°56'0 0.0
2014-Jul-20 06:33N 53°30' E 009°56'0 0.0
2014-Jul-20 05:33N 53°30' E 009°56'0 0.0
2014-Jul-20 04:33N 53°30' E 009°56'0 0.0
2014-Jul-20 03:33N 53°30' E 009°56'0 0.0
2014-Jul-20 02:33N 53°30' E 009°56'0 0.0
2014-Jul-20 01:33N 53°30' E 009°56'0 0.0
2014-Jul-20 00:33N 53°30' E 009°56'0 0.0
2014-Jul-19 23:33N 53°30' E 009°56'0 0.0
2014-Jul-19 22:33N 53°30' E 009°56'0 0.0
2014-Jul-19 21:33N 53°30' E 009°56'0 0.0
2014-Jul-19 20:33N 53°30' E 009°56'0 0.0
2014-Jul-19 19:31N 53°30' E 009°56'1 0.9
2014-Jul-19 18:33N 53°31' E 009°56'6 6.3
2014-Jul-19 17:33N 53°33' E 009°47'1111.2
2014-Jul-19 16:33N 53°39' E 009°31'1414.1
2014-Jul-19 15:34N 53°51' E 009°18'1111.4
2014-Jul-19 14:33N 53°51' E 008°59'10 9.7
2014-Jul-19 13:34N 53°53' E 008°43'1110.8
2014-Jul-19 12:34N 53°59' E 008°28'1111.4
2014-Jul-19 11:33N 53°59' E 008°08'4 4.1
2014-Jul-19 10:33N 54°03' E 008°05'1 1.2
2014-Jul-19 09:32N 54°04' E 008°05'0 0.0
2014-Jul-19 08:32N 54°04' E 008°05'0 0.0
2014-Jul-19 07:32N 54°04' E 008°05'0 0.0
2014-Jul-19 06:32N 54°04' E 008°05'0 0.0
2014-Jul-19 05:32N 54°04' E 008°05'0 0.1
2014-Jul-19 04:29N 54°04' E 008°06'0 0.1
2014-Jul-19 03:32N 54°04' E 008°06'0 0.1
2014-Jul-19 02:32N 54°04' E 008°06'0 0.0
2014-Jul-19 01:32N 54°04' E 008°06'0 0.1
2014-Jul-19 00:32N 54°04' E 008°06'0 0.1
2014-Jul-18 23:32N 54°04' E 008°06'0 0.1
2014-Jul-18 22:32N 54°04' E 008°05'0 0.0
2014-Jul-18 21:32N 54°04' E 008°05'0 0.0
2014-Jul-18 20:32N 54°04' E 008°05'0 0.0
2014-Jul-18 19:32N 54°04' E 008°05'0 0.0
2014-Jul-18 18:32N 54°04' E 008°05'0 0.1
2014-Jul-18 17:32N 54°04' E 008°05'0 0.2
2014-Jul-18 16:29N 54°04' E 008°06'1 1.6
2014-Jul-18 15:33N 54°03' E 008°05'7 7.0
2014-Jul-18 14:33N 53°59' E 007°54'7 6.5
2014-Jul-18 13:33N 53°58' E 007°43'1413.8
2014-Jul-18 12:33N 53°55' E 007°21'1716.8
2014-Jul-18 11:33N 53°50' E 006°53'1413.6
2014-Jul-18 10:34N 53°46' E 006°31'1312.9
2014-Jul-18 09:33N 53°43' E 006°10'1212.4
2014-Jul-18 08:33N 53°39' E 005°50'1211.9
2014-Jul-18 07:33N 53°36' E 005°31'1211.6
2014-Jul-18 06:33N 53°32' E 005°12'1111.1
2014-Jul-18 05:33N 53°28' E 004°55'1010.2
2014-Jul-18 04:33N 53°22' E 004°41'1110.8
2014-Jul-18 03:33N 53°12' E 004°33'1110.9
2014-Jul-18 02:34N 53°03' E 004°24'1111.0
2014-Jul-18 01:33N 52°53' E 004°15'1110.9
2014-Jul-18 00:33N 52°44' E 004°05'1110.7
2014-Jul-17 23:33N 52°36' E 003°52'1111.3
2014-Jul-17 22:33N 52°28' E 003°40'1212.1
2014-Jul-17 21:33N 52°17' E 003°32'1312.7
2014-Jul-17 20:33N 52°05' E 003°24'1313.3
2014-Jul-17 19:33N 51°52' E 003°20'1313.0
2014-Jul-17 18:33N 51°40' E 003°12'1515.2
2014-Jul-17 17:34N 51°27' E 002°60'1111.1
2014-Jul-17 16:33N 51°25' E 003°17'1212.0
2014-Jul-17 15:34N 51°26' E 003°36'9 8.6
2014-Jul-17 14:34N 51°21' E 003°48'10 9.6
2014-Jul-17 13:33N 51°26' E 004°01'8 8.3
2014-Jul-17 12:34N 51°23' E 004°13'2 2.2
2014-Jul-17 11:33N 51°21' E 004°16'0 0.0
2014-Jul-17 10:33N 51°21' E 004°16'0 0.0
2014-Jul-17 09:33N 51°21' E 004°16'0 0.0
2014-Jul-17 08:33N 51°21' E 004°16'0 0.0
2014-Jul-17 07:33N 51°21' E 004°16'0 0.0
2014-Jul-17 06:33N 51°21' E 004°16'0 0.0
2014-Jul-17 05:33N 51°21' E 004°16'0 0.0
2014-Jul-17 04:34N 51°21' E 004°16'0 0.0
2014-Jul-17 03:33N 51°21' E 004°16'0 0.0
2014-Jul-17 02:34N 51°21' E 004°16'0 0.0
2014-Jul-17 01:34N 51°21' E 004°16'0 0.0
2014-Jul-17 00:33N 51°21' E 004°16'0 0.0
2014-Jul-16 23:34N 51°21' E 004°16'0 0.0
2014-Jul-16 22:33N 51°21' E 004°16'0 0.0
2014-Jul-16 21:33N 51°21' E 004°16'0 0.0
2014-Jul-16 20:33N 51°21' E 004°16'0 0.0
2014-Jul-16 19:33N 51°21' E 004°16'0 0.0
2014-Jul-16 18:34N 51°21' E 004°16'0 0.0
2014-Jul-16 17:33N 51°21' E 004°16'0 0.0
2014-Jul-16 16:33N 51°21' E 004°16'0 0.0
2014-Jul-16 15:33N 51°21' E 004°16'0 0.0
2014-Jul-16 14:33N 51°21' E 004°16'0 0.0
2014-Jul-16 13:33N 51°21' E 004°16'0 0.0
2014-Jul-16 12:33N 51°21' E 004°16'0 0.0
2014-Jul-16 11:34N 51°21' E 004°16'0 0.0
2014-Jul-16 10:33N 51°21' E 004°16'0 0.0
2014-Jul-16 09:33N 51°21' E 004°16'0 0.0
2014-Jul-16 08:34N 51°21' E 004°16'0 0.0
2014-Jul-16 07:33N 51°21' E 004°16'0 0.0
2014-Jul-16 06:33N 51°21' E 004°16'0 0.0
2014-Jul-16 05:33N 51°21' E 004°16'0 0.0
2014-Jul-16 04:33N 51°21' E 004°16'0 0.0
2014-Jul-16 03:33N 51°21' E 004°16'0 0.0
2014-Jul-16 02:33N 51°21' E 004°16'0 0.0
2014-Jul-16 01:34N 51°21' E 004°16'0 0.0
2014-Jul-16 00:33N 51°21' E 004°16'0 0.0
2014-Jul-15 23:33N 51°21' E 004°16'0 0.0
2014-Jul-15 22:33N 51°21' E 004°16'0 0.0
2014-Jul-15 21:33N 51°21' E 004°16'3 3.1
2014-Jul-15 20:33N 51°24' E 004°13'8 7.5
2014-Jul-15 19:33N 51°26' E 004°01'9 9.0
2014-Jul-15 18:34N 51°21' E 003°49'1010.1
2014-Jul-15 17:33N 51°26' E 003°35'1414.1
2014-Jul-15 16:33N 51°24' E 003°12'1515.0
2014-Jul-15 15:33N 51°25' E 002°48'1717.0
2014-Jul-15 14:33N 51°20' E 002°22'2120.8
2014-Jul-15 13:34N 51°09' E 001°54'2020.3
2014-Jul-15 12:33N 50°55' E 001°31'1918.9
2014-Jul-15 11:33N 50°38' E 001°17'2218.7
2014-Jul-15 10:22N 50°27' E 000°47'1619.9
2014-Jul-15 09:33N 50°23' E 000°22'1919.3
2014-Jul-15 08:33N 50°21' W 000°08'2517.8
2014-Jul-15 07:10N 50°29' W 000°44'915.2
2014-Jul-15 06:33N 50°34' W 000°57'1110.5
2014-Jul-15 05:34N 50°44' W 001°04'1111.0
2014-Jul-15 04:33N 50°50' W 001°19'7 7.1
2014-Jul-15 03:33N 50°54' W 001°27'0 0.2
2014-Jul-15 02:33N 50°54' W 001°27'0 0.0
2014-Jul-15 01:33N 50°54' W 001°27'0 0.0
2014-Jul-15 00:33N 50°54' W 001°27'0 0.0
2014-Jul-14 23:33N 50°54' W 001°27'0 0.0
2014-Jul-14 22:33N 50°54' W 001°27'0 0.0
2014-Jul-14 21:33N 50°54' W 001°27'0 0.0
2014-Jul-14 20:33N 50°54' W 001°27'0 0.0
2014-Jul-14 19:33N 50°54' W 001°27'0 0.0
2014-Jul-14 18:33N 50°54' W 001°27'0 0.0
2014-Jul-14 17:33N 50°54' W 001°27'0 0.0
2014-Jul-14 16:33N 50°54' W 001°27'0 0.0
2014-Jul-14 15:33N 50°54' W 001°27'0 0.0
2014-Jul-14 14:34N 50°54' W 001°27'0 0.0
2014-Jul-14 13:33N 50°54' W 001°27'0 0.0
2014-Jul-14 12:33N 50°54' W 001°27'0 0.0
2014-Jul-14 11:33N 50°54' W 001°27'0 0.0
2014-Jul-14 10:33N 50°54' W 001°27'0 0.0
2014-Jul-14 09:33N 50°54' W 001°27'0 0.0
2014-Jul-14 08:33N 50°54' W 001°27'0 0.0
2014-Jul-14 07:33N 50°54' W 001°27'0 0.0
2014-Jul-14 06:33N 50°54' W 001°27'0 0.0
2014-Jul-14 05:33N 50°54' W 001°27'0 0.0
2014-Jul-14 04:33N 50°54' W 001°27'0 0.0
2014-Jul-14 03:33N 50°54' W 001°27'0 0.0
2014-Jul-14 02:33N 50°54' W 001°27'0 0.0
2014-Jul-14 01:33N 50°54' W 001°27'0 0.0
2014-Jul-14 00:33N 50°54' W 001°27'0 0.0
2014-Jul-13 23:33N 50°54' W 001°27'0 0.0
2014-Jul-13 22:33N 50°54' W 001°27'0 0.0
2014-Jul-13 21:33N 50°54' W 001°27'0 0.0
2014-Jul-13 20:33N 50°54' W 001°27'0 0.0
2014-Jul-13 19:34N 50°54' W 001°27'0 0.0
2014-Jul-13 18:33N 50°54' W 001°27'0 0.0
2014-Jul-13 17:33N 50°54' W 001°27'0 0.0
2014-Jul-13 16:33N 50°54' W 001°27'0 0.0
2014-Jul-13 15:33N 50°54' W 001°27'0 0.0
2014-Jul-13 14:33N 50°54' W 001°27'0 0.0
2014-Jul-13 13:33N 50°54' W 001°27'0 0.0
2014-Jul-13 12:33N 50°54' W 001°27'0 0.0
2014-Jul-13 11:33N 50°54' W 001°27'0 0.0
2014-Jul-13 10:33N 50°54' W 001°27'0 0.0
2014-Jul-13 09:33N 50°54' W 001°27'0 0.0
2014-Jul-13 08:33N 50°54' W 001°27'0 0.0
2014-Jul-13 07:33N 50°54' W 001°27'0 0.0
2014-Jul-13 06:33N 50°54' W 001°27'0 0.0
2014-Jul-13 05:33N 50°54' W 001°27'0 0.0
2014-Jul-13 04:33N 50°54' W 001°27'0 0.0
2014-Jul-13 03:33N 50°54' W 001°27'0 0.0
2014-Jul-13 02:33N 50°54' W 001°27'0 0.0
2014-Jul-13 01:33N 50°54' W 001°27'0 0.0
2014-Jul-13 00:33N 50°54' W 001°27'0 0.0
2014-Jul-12 23:33N 50°54' W 001°27'0 0.0
2014-Jul-12 22:33N 50°54' W 001°27'0 0.0
2014-Jul-12 21:33N 50°54' W 001°27'0 0.0
2014-Jul-12 20:33N 50°54' W 001°27'0 0.0
2014-Jul-12 19:33N 50°54' W 001°27'0 0.0
2014-Jul-12 18:34N 50°54' W 001°27'0 0.0
2014-Jul-12 17:33N 50°54' W 001°27'0 0.0
2014-Jul-12 16:33N 50°54' W 001°27'0 0.0
2014-Jul-12 15:33N 50°54' W 001°27'0 0.0
2014-Jul-12 14:33N 50°54' W 001°27'0 0.0
2014-Jul-12 13:33N 50°54' W 001°27'  

Dump ship's entire track history